sensor_id;sensor_type;location;lat;lon;timestamp;pressure;altitude;pressure_sealevel;temperature
70389;BMP280;58659;49.050;8.530;2022-07-04T00:01:59;100214.78;;;19.76
70389;BMP280;58659;49.050;8.530;2022-07-04T00:04:25;100219.81;;;19.71
70389;BMP280;58659;49.050;8.530;2022-07-04T00:06:50;100215.81;;;19.59
70389;BMP280;58659;49.050;8.530;2022-07-04T00:09:16;100212.22;;;19.49
70389;BMP280;58659;49.050;8.530;2022-07-04T00:11:41;100204.75;;;19.41
70389;BMP280;58659;49.050;8.530;2022-07-04T00:14:07;100210.91;;;19.34
70389;BMP280;58659;49.050;8.530;2022-07-04T00:16:32;100214.41;;;19.31
70389;BMP280;58659;49.050;8.530;2022-07-04T00:18:59;100211.84;;;19.24
70389;BMP280;58659;49.050;8.530;2022-07-04T00:21:24;100214.94;;;19.19
70389;BMP280;58659;49.050;8.530;2022-07-04T00:23:50;100212.28;;;19.19
70389;BMP280;58659;49.050;8.530;2022-07-04T00:26:15;100213.38;;;19.22
70389;BMP280;58659;49.050;8.530;2022-07-04T00:28:41;100222.53;;;19.17
70389;BMP280;58659;49.050;8.530;2022-07-04T00:31:06;100211.75;;;19.05
70389;BMP280;58659;49.050;8.530;2022-07-04T00:33:31;100224.38;;;18.93
70389;BMP280;58659;49.050;8.530;2022-07-04T00:35:57;100218.41;;;18.86
70389;BMP280;58659;49.050;8.530;2022-07-04T00:38:22;100219.56;;;18.85
70389;BMP280;58659;49.050;8.530;2022-07-04T00:40:48;100212.38;;;18.85
70389;BMP280;58659;49.050;8.530;2022-07-04T00:43:21;100217.31;;;18.83
70389;BMP280;58659;49.050;8.530;2022-07-04T00:45:46;100225.34;;;18.76
70389;BMP280;58659;49.050;8.530;2022-07-04T00:48:11;100231.13;;;18.68
70389;BMP280;58659;49.050;8.530;2022-07-04T00:50:37;100230.44;;;18.64
70389;BMP280;58659;49.050;8.530;2022-07-04T00:53:02;100246.75;;;18.59
70389;BMP280;58659;49.050;8.530;2022-07-04T00:55:28;100241.06;;;18.57
70389;BMP280;58659;49.050;8.530;2022-07-04T00:57:53;100245.28;;;18.54
70389;BMP280;58659;49.050;8.530;2022-07-04T01:00:18;100240.75;;;18.51
70389;BMP280;58659;49.050;8.530;2022-07-04T01:02:44;100239.28;;;18.50
70389;BMP280;58659;49.050;8.530;2022-07-04T01:05:09;100240.00;;;18.51
70389;BMP280;58659;49.050;8.530;2022-07-04T01:07:35;100235.19;;;18.42
70389;BMP280;58659;49.050;8.530;2022-07-04T01:10:02;100253.28;;;18.47
70389;BMP280;58659;49.050;8.530;2022-07-04T01:12:30;100237.06;;;18.45
70389;BMP280;58659;49.050;8.530;2022-07-04T01:14:56;100226.66;;;18.31
70389;BMP280;58659;49.050;8.530;2022-07-04T01:17:21;100236.03;;;18.36
70389;BMP280;58659;49.050;8.530;2022-07-04T01:19:46;100235.59;;;18.37
70389;BMP280;58659;49.050;8.530;2022-07-04T01:22:11;100230.38;;;18.33
70389;BMP280;58659;49.050;8.530;2022-07-04T01:24:37;100229.75;;;18.22
70389;BMP280;58659;49.050;8.530;2022-07-04T01:27:02;100225.63;;;18.14
70389;BMP280;58659;49.050;8.530;2022-07-04T01:29:27;100223.38;;;18.16
70389;BMP280;58659;49.050;8.530;2022-07-04T01:31:53;100226.03;;;18.16
70389;BMP280;58659;49.050;8.530;2022-07-04T01:34:19;100226.06;;;18.09
70389;BMP280;58659;49.050;8.530;2022-07-04T01:36:45;100236.81;;;17.92
70389;BMP280;58659;49.050;8.530;2022-07-04T01:39:10;100236.94;;;17.78
70389;BMP280;58659;49.050;8.530;2022-07-04T01:41:35;100237.69;;;17.78
70389;BMP280;58659;49.050;8.530;2022-07-04T01:44:01;100247.00;;;17.90
70389;BMP280;58659;49.050;8.530;2022-07-04T01:46:26;100245.06;;;18.01
70389;BMP280;58659;49.050;8.530;2022-07-04T01:48:52;100244.41;;;17.86
70389;BMP280;58659;49.050;8.530;2022-07-04T01:51:17;100249.69;;;17.86
70389;BMP280;58659;49.050;8.530;2022-07-04T01:53:42;100261.75;;;17.94
70389;BMP280;58659;49.050;8.530;2022-07-04T01:56:08;100258.59;;;18.06
70389;BMP280;58659;49.050;8.530;2022-07-04T01:58:33;100259.69;;;18.09
70389;BMP280;58659;49.050;8.530;2022-07-04T02:00:59;100256.56;;;18.21
70389;BMP280;58659;49.050;8.530;2022-07-04T02:03:58;100266.78;;;18.22
70389;BMP280;58659;49.050;8.530;2022-07-04T02:06:24;100262.66;;;18.14
70389;BMP280;58659;49.050;8.530;2022-07-04T02:08:50;100263.56;;;17.97
70389;BMP280;58659;49.050;8.530;2022-07-04T02:11:34;100272.34;;;17.87
70389;BMP280;58659;49.050;8.530;2022-07-04T02:14:18;100263.75;;;17.76
70389;BMP280;58659;49.050;8.530;2022-07-04T02:16:43;100267.22;;;17.69
70389;BMP280;58659;49.050;8.530;2022-07-04T02:19:09;100275.50;;;17.71
70389;BMP280;58659;49.050;8.530;2022-07-04T02:21:34;100267.97;;;17.70
70389;BMP280;58659;49.050;8.530;2022-07-04T02:24:00;100258.88;;;17.71
70389;BMP280;58659;49.050;8.530;2022-07-04T02:26:25;100257.41;;;17.63
70389;BMP280;58659;49.050;8.530;2022-07-04T02:28:52;100273.34;;;17.56
70389;BMP280;58659;49.050;8.530;2022-07-04T02:31:17;100258.66;;;17.48
70389;BMP280;58659;49.050;8.530;2022-07-04T02:33:43;100271.94;;;17.41
70389;BMP280;58659;49.050;8.530;2022-07-04T02:36:08;100270.34;;;17.54
70389;BMP280;58659;49.050;8.530;2022-07-04T02:38:33;100271.75;;;17.62
70389;BMP280;58659;49.050;8.530;2022-07-04T02:40:59;100279.41;;;17.49
70389;BMP280;58659;49.050;8.530;2022-07-04T02:43:24;100282.50;;;17.41
70389;BMP280;58659;49.050;8.530;2022-07-04T02:45:49;100284.72;;;17.46
70389;BMP280;58659;49.050;8.530;2022-07-04T02:48:15;100291.50;;;17.47
70389;BMP280;58659;49.050;8.530;2022-07-04T02:50:40;100290.75;;;17.43
70389;BMP280;58659;49.050;8.530;2022-07-04T02:53:05;100296.06;;;17.39
70389;BMP280;58659;49.050;8.530;2022-07-04T02:55:31;100279.47;;;17.32
70389;BMP280;58659;49.050;8.530;2022-07-04T02:57:56;100283.28;;;17.31
70389;BMP280;58659;49.050;8.530;2022-07-04T03:00:21;100286.69;;;17.31
70389;BMP280;58659;49.050;8.530;2022-07-04T03:02:47;100285.91;;;17.31
70389;BMP280;58659;49.050;8.530;2022-07-04T03:05:12;100279.53;;;17.25
70389;BMP280;58659;49.050;8.530;2022-07-04T03:07:38;100278.09;;;17.17
70389;BMP280;58659;49.050;8.530;2022-07-04T03:10:03;100283.34;;;17.13
70389;BMP280;58659;49.050;8.530;2022-07-04T03:12:28;100282.59;;;17.12
70389;BMP280;58659;49.050;8.530;2022-07-04T03:14:54;100292.00;;;17.21
70389;BMP280;58659;49.050;8.530;2022-07-04T03:17:19;100292.38;;;17.26
70389;BMP280;58659;49.050;8.530;2022-07-04T03:19:45;100297.63;;;17.30
70389;BMP280;58659;49.050;8.530;2022-07-04T03:22:10;100303.66;;;17.27
70389;BMP280;58659;49.050;8.530;2022-07-04T03:24:36;100289.78;;;17.16
70389;BMP280;58659;49.050;8.530;2022-07-04T03:27:01;100294.72;;;17.06
70389;BMP280;58659;49.050;8.530;2022-07-04T03:29:26;100294.75;;;16.96
70389;BMP280;58659;49.050;8.530;2022-07-04T03:31:52;100297.78;;;16.91
70389;BMP280;58659;49.050;8.530;2022-07-04T03:34:17;100300.78;;;16.89
70389;BMP280;58659;49.050;8.530;2022-07-04T03:36:42;100303.06;;;16.87
70389;BMP280;58659;49.050;8.530;2022-07-04T03:39:08;100298.53;;;16.88
70389;BMP280;58659;49.050;8.530;2022-07-04T03:41:33;100298.53;;;16.88
70389;BMP280;58659;49.050;8.530;2022-07-04T03:43:59;100303.06;;;16.94
70389;BMP280;58659;49.050;8.530;2022-07-04T03:46:24;100301.91;;;16.92
70389;BMP280;58659;49.050;8.530;2022-07-04T03:48:49;100302.28;;;16.90
70389;BMP280;58659;49.050;8.530;2022-07-04T03:51:15;100308.34;;;16.91
70389;BMP280;58659;49.050;8.530;2022-07-04T03:53:41;100310.97;;;16.94
70389;BMP280;58659;49.050;8.530;2022-07-04T03:56:06;100318.84;;;16.98
70389;BMP280;58659;49.050;8.530;2022-07-04T03:58:33;100311.69;;;16.98
70389;BMP280;58659;49.050;8.530;2022-07-04T04:00:59;100319.59;;;17.02
70389;BMP280;58659;49.050;8.530;2022-07-04T04:03:24;100305.63;;;17.01
70389;BMP280;58659;49.050;8.530;2022-07-04T04:06:07;100313.53;;;17.01
70389;BMP280;58659;49.050;8.530;2022-07-04T04:08:33;100307.53;;;17.04
70389;BMP280;58659;49.050;8.530;2022-07-04T04:10:58;100310.94;;;16.98
70389;BMP280;58659;49.050;8.530;2022-07-04T04:13:23;100314.38;;;16.88
70389;BMP280;58659;49.050;8.530;2022-07-04T04:15:49;100308.38;;;16.80
70389;BMP280;58659;49.050;8.530;2022-07-04T04:18:14;100314.44;;;16.70
70389;BMP280;58659;49.050;8.530;2022-07-04T04:20:39;100321.97;;;16.65
70389;BMP280;58659;49.050;8.530;2022-07-04T04:23:05;100317.06;;;16.63
70389;BMP280;58659;49.050;8.530;2022-07-04T04:25:30;100330.25;;;16.63
70389;BMP280;58659;49.050;8.530;2022-07-04T04:27:55;100327.97;;;16.65
70389;BMP280;58659;49.050;8.530;2022-07-04T04:30:21;100332.50;;;16.68
70389;BMP280;58659;49.050;8.530;2022-07-04T04:32:46;100333.66;;;16.64
70389;BMP280;58659;49.050;8.530;2022-07-04T04:35:11;100340.78;;;16.67
70389;BMP280;58659;49.050;8.530;2022-07-04T04:37:37;100352.13;;;16.60
70389;BMP280;58659;49.050;8.530;2022-07-04T04:40:02;100357.75;;;16.62
70389;BMP280;58659;49.050;8.530;2022-07-04T04:42:28;100358.50;;;16.59
70389;BMP280;58659;49.050;8.530;2022-07-04T04:44:53;100361.16;;;16.63
70389;BMP280;58659;49.050;8.530;2022-07-04T04:47:19;100366.06;;;16.64
70389;BMP280;58659;49.050;8.530;2022-07-04T04:49:44;100362.66;;;16.64
70389;BMP280;58659;49.050;8.530;2022-07-04T04:52:10;100367.19;;;16.63
70389;BMP280;58659;49.050;8.530;2022-07-04T04:54:36;100373.59;;;16.66
70389;BMP280;58659;49.050;8.530;2022-07-04T04:57:02;100370.56;;;16.74
70389;BMP280;58659;49.050;8.530;2022-07-04T04:59:28;100370.16;;;16.86
70389;BMP280;58659;49.050;8.530;2022-07-04T05:01:57;100367.50;;;16.97
70389;BMP280;58659;49.050;8.530;2022-07-04T05:04:23;100369.38;;;17.03
70389;BMP280;58659;49.050;8.530;2022-07-04T05:06:48;100370.91;;;17.04
70389;BMP280;58659;49.050;8.530;2022-07-04T05:09:14;100371.66;;;16.98
70389;BMP280;58659;49.050;8.530;2022-07-04T05:14:04;100380.72;;;16.93
70389;BMP280;58659;49.050;8.530;2022-07-04T05:16:30;100383.00;;;16.91
70389;BMP280;58659;49.050;8.530;2022-07-04T05:18:56;100376.19;;;16.97
70389;BMP280;58659;49.050;8.530;2022-07-04T05:21:21;100375.81;;;16.99
70389;BMP280;58659;49.050;8.530;2022-07-04T05:23:47;100366.34;;;17.01
70389;BMP280;58659;49.050;8.530;2022-07-04T05:26:12;100380.31;;;17.09
70389;BMP280;58659;49.050;8.530;2022-07-04T05:28:37;100388.94;;;17.20
70389;BMP280;58659;49.050;8.530;2022-07-04T05:31:03;100387.38;;;17.40
70389;BMP280;58659;49.050;8.530;2022-07-04T05:33:28;100382.78;;;17.58
70389;BMP280;58659;49.050;8.530;2022-07-04T05:35:53;100396.59;;;17.87
70389;BMP280;58659;49.050;8.530;2022-07-04T05:38:19;100394.22;;;18.07
70389;BMP280;58659;49.050;8.530;2022-07-04T05:40:44;100394.09;;;18.21
70389;BMP280;58659;49.050;8.530;2022-07-04T05:43:10;100390.19;;;18.40
70389;BMP280;58659;49.050;8.530;2022-07-04T05:45:37;100400.75;;;18.40
70389;BMP280;58659;49.050;8.530;2022-07-04T05:48:02;100397.03;;;18.33
70389;BMP280;58659;49.050;8.530;2022-07-04T05:50:28;100403.44;;;18.32
70389;BMP280;58659;49.050;8.530;2022-07-04T05:52:53;100393.63;;;18.37
70389;BMP280;58659;49.050;8.530;2022-07-04T05:55:18;100394.88;;;18.62
70389;BMP280;58659;49.050;8.530;2022-07-04T05:57:43;100396.13;;;18.91
70389;BMP280;58659;49.050;8.530;2022-07-04T06:00:09;100391.25;;;19.20
70389;BMP280;58659;49.050;8.530;2022-07-04T06:02:34;100389.91;;;19.39
70389;BMP280;58659;49.050;8.530;2022-07-04T06:04:59;100393.72;;;19.38
70389;BMP280;58659;49.050;8.530;2022-07-04T06:07:25;100393.25;;;19.43
70389;BMP280;58659;49.050;8.530;2022-07-04T06:09:50;100396.03;;;19.63
70389;BMP280;58659;49.050;8.530;2022-07-04T06:12:15;100401.03;;;19.84
70389;BMP280;58659;49.050;8.530;2022-07-04T06:14:41;100407.41;;;20.13
70389;BMP280;58659;49.050;8.530;2022-07-04T06:17:06;100408.78;;;20.44
70389;BMP280;58659;49.050;8.530;2022-07-04T06:19:31;100407.63;;;20.68
70389;BMP280;58659;49.050;8.530;2022-07-04T06:21:56;100404.16;;;20.71
70389;BMP280;58659;49.050;8.530;2022-07-04T06:24:22;100399.59;;;20.72
70389;BMP280;58659;49.050;8.530;2022-07-04T06:26:48;100399.09;;;20.77
70389;BMP280;58659;49.050;8.530;2022-07-04T06:29:22;100393.44;;;20.75
70389;BMP280;58659;49.050;8.530;2022-07-04T06:31:47;100394.63;;;20.74
70389;BMP280;58659;49.050;8.530;2022-07-04T06:34:13;100391.78;;;20.81
70389;BMP280;58659;49.050;8.530;2022-07-04T06:36:56;100393.16;;;20.89
70389;BMP280;58659;49.050;8.530;2022-07-04T06:39:22;100392.22;;;20.99
70389;BMP280;58659;49.050;8.530;2022-07-04T06:41:47;100389.78;;;21.08
70389;BMP280;58659;49.050;8.530;2022-07-04T06:44:12;100391.34;;;21.22
70389;BMP280;58659;49.050;8.530;2022-07-04T06:46:37;100384.22;;;21.54
70389;BMP280;58659;49.050;8.530;2022-07-04T06:49:03;100383.31;;;22.09
70389;BMP280;58659;49.050;8.530;2022-07-04T06:51:28;100385.66;;;22.65
70389;BMP280;58659;49.050;8.530;2022-07-04T06:53:53;100388.28;;;22.93
70389;BMP280;58659;49.050;8.530;2022-07-04T06:56:19;100395.75;;;23.24
70389;BMP280;58659;49.050;8.530;2022-07-04T06:58:44;100379.97;;;23.42
70389;BMP280;58659;49.050;8.530;2022-07-04T07:01:10;100382.31;;;23.52
70389;BMP280;58659;49.050;8.530;2022-07-04T07:03:35;100385.50;;;23.60
70389;BMP280;58659;49.050;8.530;2022-07-04T07:06:02;100377.91;;;23.71
70389;BMP280;58659;49.050;8.530;2022-07-04T07:08:31;100378.94;;;23.86
70389;BMP280;58659;49.050;8.530;2022-07-04T07:13:22;100380.41;;;24.21
70389;BMP280;58659;49.050;8.530;2022-07-04T07:18:12;100377.53;;;24.81
70389;BMP280;58659;49.050;8.530;2022-07-04T07:20:37;100376.50;;;25.36
70389;BMP280;58659;49.050;8.530;2022-07-04T07:23:03;100389.63;;;25.79
70389;BMP280;58659;49.050;8.530;2022-07-04T07:25:29;100392.78;;;25.78
70389;BMP280;58659;49.050;8.530;2022-07-04T07:27:54;100384.59;;;25.90
70389;BMP280;58659;49.050;8.530;2022-07-04T07:30:20;100390.09;;;26.05
70389;BMP280;58659;49.050;8.530;2022-07-04T07:32:45;100384.09;;;26.28
70389;BMP280;58659;49.050;8.530;2022-07-04T07:35:11;100383.94;;;26.41
70389;BMP280;58659;49.050;8.530;2022-07-04T07:37:36;100373.56;;;26.75
70389;BMP280;58659;49.050;8.530;2022-07-04T07:40:02;100374.25;;;26.85
70389;BMP280;58659;49.050;8.530;2022-07-04T07:42:27;100383.13;;;27.24
70389;BMP280;58659;49.050;8.530;2022-07-04T07:44:52;100383.91;;;27.39
70389;BMP280;58659;49.050;8.530;2022-07-04T07:47:18;100379.00;;;27.61
70389;BMP280;58659;49.050;8.530;2022-07-04T07:49:43;100371.25;;;27.78
70389;BMP280;58659;49.050;8.530;2022-07-04T07:52:09;100375.53;;;28.13
70389;BMP280;58659;49.050;8.530;2022-07-04T07:54:34;100370.72;;;28.32
70389;BMP280;58659;49.050;8.530;2022-07-04T07:57:00;100378.50;;;28.30
70389;BMP280;58659;49.050;8.530;2022-07-04T07:59:25;100373.50;;;28.37
70389;BMP280;58659;49.050;8.530;2022-07-04T08:01:50;100372.38;;;28.44
70389;BMP280;58659;49.050;8.530;2022-07-04T08:04:15;100375.69;;;28.53
70389;BMP280;58659;49.050;8.530;2022-07-04T08:06:59;100375.81;;;28.79
70389;BMP280;58659;49.050;8.530;2022-07-04T08:09:24;100376.19;;;27.94
70389;BMP280;58659;49.050;8.530;2022-07-04T08:11:49;100384.63;;;28.01
70389;BMP280;58659;49.050;8.530;2022-07-04T08:14:15;100379.84;;;28.40
70389;BMP280;58659;49.050;8.530;2022-07-04T08:16:40;100377.03;;;28.78
70389;BMP280;58659;49.050;8.530;2022-07-04T08:19:05;100372.94;;;29.23
70389;BMP280;58659;49.050;8.530;2022-07-04T08:21:30;100361.94;;;29.72
70389;BMP280;58659;49.050;8.530;2022-07-04T08:23:56;100356.94;;;29.85
70389;BMP280;58659;49.050;8.530;2022-07-04T08:26:21;100361.88;;;30.23
70389;BMP280;58659;49.050;8.530;2022-07-04T08:28:46;100354.66;;;29.78
70389;BMP280;58659;49.050;8.530;2022-07-04T08:31:12;100355.97;;;28.77
70389;BMP280;58659;49.050;8.530;2022-07-04T08:33:37;100358.97;;;28.00
70389;BMP280;58659;49.050;8.530;2022-07-04T08:36:03;100347.34;;;27.80
70389;BMP280;58659;49.050;8.530;2022-07-04T08:38:28;100345.41;;;27.65
70389;BMP280;58659;49.050;8.530;2022-07-04T08:40:55;100341.81;;;28.27
70389;BMP280;58659;49.050;8.530;2022-07-04T08:43:22;100347.72;;;29.20
70389;BMP280;58659;49.050;8.530;2022-07-04T08:45:47;100345.69;;;30.23
70389;BMP280;58659;49.050;8.530;2022-07-04T08:48:13;100336.69;;;30.80
70389;BMP280;58659;49.050;8.530;2022-07-04T08:50:47;100336.25;;;30.98
70389;BMP280;58659;49.050;8.530;2022-07-04T08:53:20;100338.72;;;30.96
70389;BMP280;58659;49.050;8.530;2022-07-04T08:55:46;100332.88;;;31.08
70389;BMP280;58659;49.050;8.530;2022-07-04T08:58:32;100331.19;;;30.58
70389;BMP280;58659;49.050;8.530;2022-07-04T09:03:24;100328.94;;;29.06
70389;BMP280;58659;49.050;8.530;2022-07-04T09:05:49;100320.94;;;29.88
70389;BMP280;58659;49.050;8.530;2022-07-04T09:08:14;100320.81;;;30.39
70389;BMP280;58659;49.050;8.530;2022-07-04T09:10:40;100329.53;;;30.23
70389;BMP280;58659;49.050;8.530;2022-07-04T09:13:05;100336.91;;;29.15
70389;BMP280;58659;49.050;8.530;2022-07-04T09:15:31;100329.38;;;28.29
70389;BMP280;58659;49.050;8.530;2022-07-04T09:17:57;100321.59;;;26.40
70389;BMP280;58659;49.050;8.530;2022-07-04T09:20:23;100330.13;;;26.21
70389;BMP280;58659;49.050;8.530;2022-07-04T09:22:49;100332.69;;;27.13
70389;BMP280;58659;49.050;8.530;2022-07-04T09:25:15;100340.06;;;28.09
70389;BMP280;58659;49.050;8.530;2022-07-04T09:27:42;100337.06;;;29.31
70389;BMP280;58659;49.050;8.530;2022-07-04T09:30:12;100351.31;;;30.20
70389;BMP280;58659;49.050;8.530;2022-07-04T09:32:51;100330.13;;;30.86
70389;BMP280;58659;49.050;8.530;2022-07-04T09:37:47;100336.72;;;30.91
70389;BMP280;58659;49.050;8.530;2022-07-04T09:40:23;100336.59;;;31.33
70389;BMP280;58659;49.050;8.530;2022-07-04T09:42:49;100340.06;;;31.78
70389;BMP280;58659;49.050;8.530;2022-07-04T09:45:14;73326.13;;;-143.76
70389;BMP280;58659;49.050;8.530;2022-07-04T09:47:40;73326.13;;;-143.76
70389;BMP280;58659;49.050;8.530;2022-07-04T09:50:07;73326.13;;;-143.76
70389;BMP280;58659;49.050;8.530;2022-07-04T09:57:46;73326.13;;;-143.76
70389;BMP280;58659;49.050;8.530;2022-07-04T10:02:43;73326.13;;;-143.76
70389;BMP280;58659;49.050;8.530;2022-07-04T10:05:11;73326.13;;;-143.76
70389;BMP280;58659;49.050;8.530;2022-07-04T10:07:37;73326.13;;;-143.76
70389;BMP280;58659;49.050;8.530;2022-07-04T10:12:49;73326.13;;;-143.76
70389;BMP280;58659;49.050;8.530;2022-07-04T10:15:15;73326.13;;;-143.76
70389;BMP280;58659;49.050;8.530;2022-07-04T10:17:41;73326.13;;;-143.76
70389;BMP280;58659;49.050;8.530;2022-07-04T10:20:06;73326.13;;;-143.76
70389;BMP280;58659;49.050;8.530;2022-07-04T10:22:31;73326.13;;;-143.76
70389;BMP280;58659;49.050;8.530;2022-07-04T10:24:57;73326.13;;;-143.76
70389;BMP280;58659;49.050;8.530;2022-07-04T10:27:22;73326.13;;;-143.76
70389;BMP280;58659;49.050;8.530;2022-07-04T10:29:48;73326.13;;;-143.76
70389;BMP280;58659;49.050;8.530;2022-07-04T10:32:13;73326.13;;;-143.76
70389;BMP280;58659;49.050;8.530;2022-07-04T10:34:39;73326.13;;;-143.76
70389;BMP280;58659;49.050;8.530;2022-07-04T10:37:05;73326.13;;;-143.76
70389;BMP280;58659;49.050;8.530;2022-07-04T10:39:30;73326.13;;;-143.76
70389;BMP280;58659;49.050;8.530;2022-07-04T10:41:59;73326.13;;;-143.76
70389;BMP280;58659;49.050;8.530;2022-07-04T10:44:26;73326.13;;;-143.76
70389;BMP280;58659;49.050;8.530;2022-07-04T10:46:52;73326.13;;;-143.76
70389;BMP280;58659;49.050;8.530;2022-07-04T10:49:19;73326.13;;;-143.76
70389;BMP280;58659;49.050;8.530;2022-07-04T10:51:49;73326.13;;;-143.76
70389;BMP280;58659;49.050;8.530;2022-07-04T10:54:15;73326.13;;;-143.76
70389;BMP280;58659;49.050;8.530;2022-07-04T10:56:42;73326.13;;;-143.76
70389;BMP280;58659;49.050;8.530;2022-07-04T10:59:11;73326.13;;;-143.76
70389;BMP280;58659;49.050;8.530;2022-07-04T11:01:37;73326.13;;;-143.76
70389;BMP280;58659;49.050;8.530;2022-07-04T11:04:02;73326.13;;;-143.76
70389;BMP280;58659;49.050;8.530;2022-07-04T11:09:12;73326.13;;;-143.76
70389;BMP280;58659;49.050;8.530;2022-07-04T11:14:30;73326.13;;;-143.76
70389;BMP280;58659;49.050;8.530;2022-07-04T11:16:55;73326.13;;;-143.76
70389;BMP280;58659;49.050;8.530;2022-07-04T11:19:21;73326.13;;;-143.76
70389;BMP280;58659;49.050;8.530;2022-07-04T11:21:46;73326.13;;;-143.76
70389;BMP280;58659;49.050;8.530;2022-07-04T11:24:12;73326.13;;;-143.76
70389;BMP280;58659;49.050;8.530;2022-07-04T11:26:37;73326.13;;;-143.76
70389;BMP280;58659;49.050;8.530;2022-07-04T11:29:02;73326.13;;;-143.76
70389;BMP280;58659;49.050;8.530;2022-07-04T11:32:01;73326.13;;;-143.76
70389;BMP280;58659;49.050;8.530;2022-07-04T11:34:20;73326.13;;;-143.76
70389;BMP280;58659;49.050;8.530;2022-07-04T11:36:46;73326.13;;;-143.76
70389;BMP280;58659;49.050;8.530;2022-07-04T11:39:13;73326.13;;;-143.76
70389;BMP280;58659;49.050;8.530;2022-07-04T11:41:39;73326.13;;;-143.76
70389;BMP280;58659;49.050;8.530;2022-07-04T11:44:24;73326.13;;;-143.76
70389;BMP280;58659;49.050;8.530;2022-07-04T11:47:09;73326.13;;;-143.76
70389;BMP280;58659;49.050;8.530;2022-07-04T11:49:35;73326.13;;;-143.76
70389;BMP280;58659;49.050;8.530;2022-07-04T11:52:01;73326.13;;;-143.76
70389;BMP280;58659;49.050;8.530;2022-07-04T11:54:26;73326.13;;;-143.76
70389;BMP280;58659;49.050;8.530;2022-07-04T11:56:51;73326.13;;;-143.76
70389;BMP280;58659;49.050;8.530;2022-07-04T11:59:17;73326.13;;;-143.76
70389;BMP280;58659;49.050;8.530;2022-07-04T12:01:42;73326.13;;;-143.76
70389;BMP280;58659;49.050;8.530;2022-07-04T12:04:18;73326.13;;;-143.76
70389;BMP280;58659;49.050;8.530;2022-07-04T12:06:46;73326.13;;;-143.76
70389;BMP280;58659;49.050;8.530;2022-07-04T12:09:12;73326.13;;;-143.76
70389;BMP280;58659;49.050;8.530;2022-07-04T12:11:51;73326.13;;;-143.76
70389;BMP280;58659;49.050;8.530;2022-07-04T12:14:16;73326.13;;;-143.76
70389;BMP280;58659;49.050;8.530;2022-07-04T12:16:41;73326.13;;;-143.76
70389;BMP280;58659;49.050;8.530;2022-07-04T12:19:10;73326.13;;;-143.76
70389;BMP280;58659;49.050;8.530;2022-07-04T12:21:35;73326.13;;;-143.76
70389;BMP280;58659;49.050;8.530;2022-07-04T12:24:00;73326.13;;;-143.76
70389;BMP280;58659;49.050;8.530;2022-07-04T12:26:28;73326.13;;;-143.76
70389;BMP280;58659;49.050;8.530;2022-07-04T12:28:54;73326.13;;;-143.76
70389;BMP280;58659;49.050;8.530;2022-07-04T12:31:19;73326.13;;;-143.76
70389;BMP280;58659;49.050;8.530;2022-07-04T12:33:54;73326.13;;;-143.76
70389;BMP280;58659;49.050;8.530;2022-07-04T12:36:20;73326.13;;;-143.76
70389;BMP280;58659;49.050;8.530;2022-07-04T12:38:45;73326.13;;;-143.76
70389;BMP280;58659;49.050;8.530;2022-07-04T12:46:14;73326.13;;;-143.76
70389;BMP280;58659;49.050;8.530;2022-07-04T12:48:40;73326.13;;;-143.76
70389;BMP280;58659;49.050;8.530;2022-07-04T12:51:12;73326.13;;;-143.76
70389;BMP280;58659;49.050;8.530;2022-07-04T12:53:38;73326.13;;;-143.76
70389;BMP280;58659;49.050;8.530;2022-07-04T12:56:04;73326.13;;;-143.76
70389;BMP280;58659;49.050;8.530;2022-07-04T12:58:29;73326.13;;;-143.76
70389;BMP280;58659;49.050;8.530;2022-07-04T13:00:55;73326.13;;;-143.76
70389;BMP280;58659;49.050;8.530;2022-07-04T13:03:21;73326.13;;;-143.76
70389;BMP280;58659;49.050;8.530;2022-07-04T13:05:46;73326.13;;;-143.76
70389;BMP280;58659;49.050;8.530;2022-07-04T13:08:11;73326.13;;;-143.76
70389;BMP280;58659;49.050;8.530;2022-07-04T13:10:37;73326.13;;;-143.76
70389;BMP280;58659;49.050;8.530;2022-07-04T13:13:02;73326.13;;;-143.76
70389;BMP280;58659;49.050;8.530;2022-07-04T13:15:28;73326.13;;;-143.76
70389;BMP280;58659;49.050;8.530;2022-07-04T13:17:54;73326.13;;;-143.76
70389;BMP280;58659;49.050;8.530;2022-07-04T13:20:20;73326.13;;;-143.76
70389;BMP280;58659;49.050;8.530;2022-07-04T13:22:45;73326.13;;;-143.76
70389;BMP280;58659;49.050;8.530;2022-07-04T13:25:10;73326.13;;;-143.76
70389;BMP280;58659;49.050;8.530;2022-07-04T13:27:35;73326.13;;;-143.76
70389;BMP280;58659;49.050;8.530;2022-07-04T13:30:01;73326.13;;;-143.76
70389;BMP280;58659;49.050;8.530;2022-07-04T13:32:26;73326.13;;;-143.76
70389;BMP280;58659;49.050;8.530;2022-07-04T13:34:51;73326.13;;;-143.76
70389;BMP280;58659;49.050;8.530;2022-07-04T13:37:17;73326.13;;;-143.76
70389;BMP280;58659;49.050;8.530;2022-07-04T13:39:43;73326.13;;;-143.76
70389;BMP280;58659;49.050;8.530;2022-07-04T13:42:08;73326.13;;;-143.76
70389;BMP280;58659;49.050;8.530;2022-07-04T13:44:34;73326.13;;;-143.76
70389;BMP280;58659;49.050;8.530;2022-07-04T13:46:59;73326.13;;;-143.76
70389;BMP280;58659;49.050;8.530;2022-07-04T13:49:24;73326.13;;;-143.76
70389;BMP280;58659;49.050;8.530;2022-07-04T13:51:50;73326.13;;;-143.76
70389;BMP280;58659;49.050;8.530;2022-07-04T13:54:16;73326.13;;;-143.76
70389;BMP280;58659;49.050;8.530;2022-07-04T13:56:41;73326.13;;;-143.76
70389;BMP280;58659;49.050;8.530;2022-07-04T13:59:07;73326.13;;;-143.76
70389;BMP280;58659;49.050;8.530;2022-07-04T14:01:32;73326.13;;;-143.76
70389;BMP280;58659;49.050;8.530;2022-07-04T14:03:58;73326.13;;;-143.76
70389;BMP280;58659;49.050;8.530;2022-07-04T14:06:24;73326.13;;;-143.76
70389;BMP280;58659;49.050;8.530;2022-07-04T14:08:49;73326.13;;;-143.76
70389;BMP280;58659;49.050;8.530;2022-07-04T14:11:14;73326.13;;;-143.76
70389;BMP280;58659;49.050;8.530;2022-07-04T14:13:39;73326.13;;;-143.76
70389;BMP280;58659;49.050;8.530;2022-07-04T14:16:05;73326.13;;;-143.76
70389;BMP280;58659;49.050;8.530;2022-07-04T14:18:31;73326.13;;;-143.76
70389;BMP280;58659;49.050;8.530;2022-07-04T14:20:57;73326.13;;;-143.76